sensor_id;sensor_type;location;lat;lon;timestamp;pressure;altitude;pressure_sealevel;temperature;humidity
30967;BME280;17649;51.836;8.330;2023-02-28T00:02:03;102480.34;;;0.42;100.00
30967;BME280;17649;51.836;8.330;2023-02-28T00:05:05;102477.72;;;0.36;100.00
30967;BME280;17649;51.836;8.330;2023-02-28T00:08:05;102478.56;;;0.36;100.00
30967;BME280;17649;51.836;8.330;2023-02-28T00:11:10;102482.91;;;0.43;100.00
30967;BME280;17649;51.836;8.330;2023-02-28T00:14:11;102474.41;;;0.41;100.00
30967;BME280;17649;51.836;8.330;2023-02-28T00:17:11;102464.16;;;0.37;100.00
30967;BME280;17649;51.836;8.330;2023-02-28T00:20:12;102465.03;;;0.40;100.00
30967;BME280;17649;51.836;8.330;2023-02-28T00:23:13;102465.81;;;0.35;100.00
30967;BME280;17649;51.836;8.330;2023-02-28T00:26:14;102464.97;;;0.34;100.00
30967;BME280;17649;51.836;8.330;2023-02-28T00:29:14;102469.16;;;0.32;100.00
30967;BME280;17649;51.836;8.330;2023-02-28T00:32:14;102472.63;;;0.36;100.00
30967;BME280;17649;51.836;8.330;2023-02-28T00:35:15;102483.69;;;0.38;100.00
30967;BME280;17649;51.836;8.330;2023-02-28T00:38:16;102476.03;;;0.38;100.00
30967;BME280;17649;51.836;8.330;2023-02-28T00:41:16;102482.97;;;0.45;100.00
30967;BME280;17649;51.836;8.330;2023-02-28T00:44:17;102483.88;;;0.50;100.00
30967;BME280;17649;51.836;8.330;2023-02-28T00:47:17;102489.03;;;0.53;100.00
30967;BME280;17649;51.836;8.330;2023-02-28T00:50:18;102485.66;;;0.55;100.00
30967;BME280;17649;51.836;8.330;2023-02-28T00:53:19;102490.03;;;0.61;100.00
30967;BME280;17649;51.836;8.330;2023-02-28T00:56:20;102483.22;;;0.60;100.00
30967;BME280;17649;51.836;8.330;2023-02-28T00:59:20;102488.97;;;0.50;100.00
30967;BME280;17649;51.836;8.330;2023-02-28T01:02:22;102483.72;;;0.41;100.00
30967;BME280;17649;51.836;8.330;2023-02-28T01:05:23;102476.06;;;0.39;100.00
30967;BME280;17649;51.836;8.330;2023-02-28T01:08:24;102488.00;;;0.43;100.00
30967;BME280;17649;51.836;8.330;2023-02-28T01:11:25;102489.78;;;0.46;100.00
30967;BME280;17649;51.836;8.330;2023-02-28T01:14:26;102495.72;;;0.46;100.00
30967;BME280;17649;51.836;8.330;2023-02-28T01:17:26;102479.44;;;0.37;100.00
30967;BME280;17649;51.836;8.330;2023-02-28T01:20:27;102483.50;;;0.27;100.00
30967;BME280;17649;51.836;8.330;2023-02-28T01:23:27;102481.63;;;0.15;100.00
30967;BME280;17649;51.836;8.330;2023-02-28T01:26:28;102488.22;;;0.06;100.00
30967;BME280;17649;51.836;8.330;2023-02-28T01:29:28;102483.81;;;-0.03;100.00
30967;BME280;17649;51.836;8.330;2023-02-28T01:32:28;102476.84;;;-0.15;100.00
30967;BME280;17649;51.836;8.330;2023-02-28T01:35:32;102487.75;;;-0.20;100.00
30967;BME280;17649;51.836;8.330;2023-02-28T01:38:33;102483.47;;;-0.21;100.00
30967;BME280;17649;51.836;8.330;2023-02-28T01:41:34;102492.69;;;-0.28;100.00
30967;BME280;17649;51.836;8.330;2023-02-28T01:45:02;102483.25;;;-0.34;100.00
30967;BME280;17649;51.836;8.330;2023-02-28T01:48:07;102483.13;;;-0.40;100.00
30967;BME280;17649;51.836;8.330;2023-02-28T01:51:12;102488.84;;;-0.50;100.00
30967;BME280;17649;51.836;8.330;2023-02-28T01:54:16;102485.41;;;-0.53;100.00
30967;BME280;17649;51.836;8.330;2023-02-28T01:57:22;102481.06;;;-0.59;100.00
30967;BME280;17649;51.836;8.330;2023-02-28T02:00:26;102482.75;;;-0.59;100.00
30967;BME280;17649;51.836;8.330;2023-02-28T02:03:27;102484.34;;;-0.63;100.00
30967;BME280;17649;51.836;8.330;2023-02-28T02:06:47;102489.25;;;-0.72;100.00
30967;BME280;17649;51.836;8.330;2023-02-28T02:09:47;102483.28;;;-0.74;100.00
30967;BME280;17649;51.836;8.330;2023-02-28T02:25:54;102486.16;;;-0.59;100.00
30967;BME280;17649;51.836;8.330;2023-02-28T02:36:24;102481.19;;;-0.51;100.00
30967;BME280;17649;51.836;8.330;2023-02-28T02:42:31;102481.50;;;-0.77;100.00
30967;BME280;17649;51.836;8.330;2023-02-28T02:45:49;102478.75;;;-0.87;100.00
30967;BME280;17649;51.836;8.330;2023-02-28T02:48:53;102484.63;;;-0.90;100.00
30967;BME280;17649;51.836;8.330;2023-02-28T02:51:56;102480.22;;;-0.99;100.00
30967;BME280;17649;51.836;8.330;2023-02-28T02:54:58;102482.72;;;-1.00;100.00
30967;BME280;17649;51.836;8.330;2023-02-28T02:58:04;102478.28;;;-1.09;100.00
30967;BME280;17649;51.836;8.330;2023-02-28T03:01:06;102479.84;;;-1.15;100.00
30967;BME280;17649;51.836;8.330;2023-02-28T03:04:14;102481.50;;;-1.16;100.00
30967;BME280;17649;51.836;8.330;2023-02-28T03:07:16;102480.63;;;-1.18;100.00
30967;BME280;17649;51.836;8.330;2023-02-28T03:20:40;102491.41;;;-1.27;100.00
30967;BME280;17649;51.836;8.330;2023-02-28T03:23:49;102484.66;;;-1.26;100.00
30967;BME280;17649;51.836;8.330;2023-02-28T03:27:16;102490.50;;;-1.30;100.00
30967;BME280;17649;51.836;8.330;2023-02-28T03:30:38;102483.59;;;-1.34;100.00
30967;BME280;17649;51.836;8.330;2023-02-28T03:33:46;102482.72;;;-1.36;100.00
30967;BME280;17649;51.836;8.330;2023-02-28T03:36:58;102477.50;;;-1.42;100.00
30967;BME280;17649;51.836;8.330;2023-02-28T03:40:13;102486.00;;;-1.40;100.00
30967;BME280;17649;51.836;8.330;2023-02-28T03:43:21;102479.19;;;-1.43;100.00
30967;BME280;17649;51.836;8.330;2023-02-28T03:46:25;102486.84;;;-1.41;100.00
30967;BME280;17649;51.836;8.330;2023-02-28T03:49:32;102474.84;;;-1.48;100.00
30967;BME280;17649;51.836;8.330;2023-02-28T03:52:38;102485.06;;;-1.45;100.00
30967;BME280;17649;51.836;8.330;2023-02-28T03:55:48;102479.94;;;-1.47;100.00
30967;BME280;17649;51.836;8.330;2023-02-28T03:59:12;102481.50;;;-1.52;100.00
30967;BME280;17649;51.836;8.330;2023-02-28T04:02:14;102480.63;;;-1.53;100.00
30967;BME280;17649;51.836;8.330;2023-02-28T04:05:14;102476.28;;;-1.58;100.00
30967;BME280;17649;51.836;8.330;2023-02-28T04:08:15;102475.25;;;-1.65;100.00
30967;BME280;17649;51.836;8.330;2023-02-28T04:11:37;102474.53;;;-1.61;100.00
30967;BME280;17649;51.836;8.330;2023-02-28T04:14:38;102489.75;;;-1.61;100.00
30967;BME280;17649;51.836;8.330;2023-02-28T04:17:38;102480.34;;;-1.65;100.00
30967;BME280;17649;51.836;8.330;2023-02-28T04:20:38;102481.97;;;-1.67;100.00
30967;BME280;17649;51.836;8.330;2023-02-28T04:23:39;102473.44;;;-1.70;100.00
30967;BME280;17649;51.836;8.330;2023-02-28T04:26:41;102477.63;;;-1.72;100.00
30967;BME280;17649;51.836;8.330;2023-02-28T04:29:43;102487.72;;;-1.75;100.00
30967;BME280;17649;51.836;8.330;2023-02-28T04:32:44;102480.63;;;-1.87;100.00
30967;BME280;17649;51.836;8.330;2023-02-28T04:35:44;102478.00;;;-1.92;100.00
30967;BME280;17649;51.836;8.330;2023-02-28T04:38:45;102479.53;;;-1.97;100.00
30967;BME280;17649;51.836;8.330;2023-02-28T04:41:46;102477.59;;;-2.07;100.00
30967;BME280;17649;51.836;8.330;2023-02-28T04:44:46;102482.41;;;-2.16;100.00
30967;BME280;17649;51.836;8.330;2023-02-28T04:47:47;102479.59;;;-2.25;100.00
30967;BME280;17649;51.836;8.330;2023-02-28T04:50:47;102488.75;;;-2.32;100.00
30967;BME280;17649;51.836;8.330;2023-02-28T04:53:48;102482.59;;;-2.40;100.00
30967;BME280;17649;51.836;8.330;2023-02-28T04:56:48;102490.91;;;-2.46;100.00
30967;BME280;17649;51.836;8.330;2023-02-28T04:59:49;102480.69;;;-2.49;100.00
30967;BME280;17649;51.836;8.330;2023-02-28T05:02:50;102484.84;;;-2.51;100.00
30967;BME280;17649;51.836;8.330;2023-02-28T05:05:50;102481.34;;;-2.54;100.00
30967;BME280;17649;51.836;8.330;2023-02-28T05:08:51;102481.25;;;-2.57;100.00
30967;BME280;17649;51.836;8.330;2023-02-28T05:11:52;102482.84;;;-2.61;100.00
30967;BME280;17649;51.836;8.330;2023-02-28T05:14:52;102485.34;;;-2.62;100.00
30967;BME280;17649;51.836;8.330;2023-02-28T05:17:53;102491.25;;;-2.63;100.00
30967;BME280;17649;51.836;8.330;2023-02-28T05:20:53;102491.16;;;-2.66;100.00
30967;BME280;17649;51.836;8.330;2023-02-28T05:23:55;102489.31;;;-2.71;100.00
30967;BME280;17649;51.836;8.330;2023-02-28T05:26:55;102493.38;;;-2.77;100.00
30967;BME280;17649;51.836;8.330;2023-02-28T05:29:56;102491.91;;;-2.69;100.00
30967;BME280;17649;51.836;8.330;2023-02-28T05:32:57;102501.28;;;-2.66;100.00
30967;BME280;17649;51.836;8.330;2023-02-28T05:35:57;102503.59;;;-2.74;100.00
30967;BME280;17649;51.836;8.330;2023-02-28T05:38:58;102506.06;;;-2.76;100.00
30967;BME280;17649;51.836;8.330;2023-02-28T05:41:58;102500.16;;;-2.76;100.00
30967;BME280;17649;51.836;8.330;2023-02-28T05:44:58;102502.88;;;-2.68;100.00
30967;BME280;17649;51.836;8.330;2023-02-28T05:47:59;102512.94;;;-2.72;100.00
30967;BME280;17649;51.836;8.330;2023-02-28T05:50:59;102513.69;;;-2.76;100.00
30967;BME280;17649;51.836;8.330;2023-02-28T05:54:00;102513.50;;;-2.82;100.00
30967;BME280;17649;51.836;8.330;2023-02-28T05:57:01;102509.44;;;-2.77;100.00
30967;BME280;17649;51.836;8.330;2023-02-28T06:00:02;102514.78;;;-2.67;100.00
30967;BME280;17649;51.836;8.330;2023-02-28T06:03:03;102514.78;;;-2.67;100.00
30967;BME280;17649;51.836;8.330;2023-02-28T06:06:03;102505.19;;;-2.78;100.00
30967;BME280;17649;51.836;8.330;2023-02-28T06:09:04;102511.16;;;-2.76;100.00
30967;BME280;17649;51.836;8.330;2023-02-28T06:12:06;102507.75;;;-2.76;100.00
30967;BME280;17649;51.836;8.330;2023-02-28T06:15:11;102511.06;;;-2.79;100.00
30967;BME280;17649;51.836;8.330;2023-02-28T06:18:12;102513.75;;;-2.73;100.00
30967;BME280;17649;51.836;8.330;2023-02-28T06:21:13;102513.75;;;-2.73;100.00
30967;BME280;17649;51.836;8.330;2023-02-28T06:24:13;102522.31;;;-2.69;100.00
30967;BME280;17649;51.836;8.330;2023-02-28T06:27:13;102519.69;;;-2.72;100.00
30967;BME280;17649;51.836;8.330;2023-02-28T06:30:14;102518.09;;;-2.68;100.00
30967;BME280;17649;51.836;8.330;2023-02-28T06:33:14;102510.63;;;-2.65;100.00
30967;BME280;17649;51.836;8.330;2023-02-28T06:36:15;102529.38;;;-2.59;100.00
30967;BME280;17649;51.836;8.330;2023-02-28T06:39:16;102525.25;;;-2.55;100.00
30967;BME280;17649;51.836;8.330;2023-02-28T06:42:19;102523.69;;;-2.52;100.00
30967;BME280;17649;51.836;8.330;2023-02-28T06:45:20;102531.56;;;-2.41;100.00
30967;BME280;17649;51.836;8.330;2023-02-28T06:48:21;102526.97;;;-2.24;100.00
30967;BME280;17649;51.836;8.330;2023-02-28T06:51:24;102535.75;;;-2.13;100.00
30967;BME280;17649;51.836;8.330;2023-02-28T06:54:32;102530.06;;;-2.04;100.00
30967;BME280;17649;51.836;8.330;2023-02-28T06:57:34;102534.47;;;-1.97;100.00
30967;BME280;17649;51.836;8.330;2023-02-28T07:00:35;102538.91;;;-1.90;100.00
30967;BME280;17649;51.836;8.330;2023-02-28T07:03:36;102542.34;;;-1.88;100.00
30967;BME280;17649;51.836;8.330;2023-02-28T07:06:36;102539.91;;;-1.85;100.00
30967;BME280;17649;51.836;8.330;2023-02-28T07:09:37;102538.44;;;-1.77;100.00
30967;BME280;17649;51.836;8.330;2023-02-28T07:12:37;102549.63;;;-1.69;100.00
30967;BME280;17649;51.836;8.330;2023-02-28T07:15:38;102557.41;;;-1.63;100.00
30967;BME280;17649;51.836;8.330;2023-02-28T07:18:38;102561.06;;;-1.52;100.00
30967;BME280;17649;51.836;8.330;2023-02-28T07:21:39;102561.28;;;-1.44;100.00
30967;BME280;17649;51.836;8.330;2023-02-28T07:24:39;102557.25;;;-1.34;100.00
30967;BME280;17649;51.836;8.330;2023-02-28T07:27:40;102565.16;;;-1.24;100.00
30967;BME280;17649;51.836;8.330;2023-02-28T07:30:41;102559.56;;;-1.09;100.00
30967;BME280;17649;51.836;8.330;2023-02-28T07:33:41;102573.63;;;-0.88;100.00
30967;BME280;17649;51.836;8.330;2023-02-28T07:36:42;102570.66;;;-0.69;100.00
30967;BME280;17649;51.836;8.330;2023-02-28T07:39:42;102571.09;;;-0.49;100.00
30967;BME280;17649;51.836;8.330;2023-02-28T07:42:49;102561.28;;;-0.33;100.00
30967;BME280;17649;51.836;8.330;2023-02-28T07:45:49;102572.63;;;-0.17;100.00
30967;BME280;17649;51.836;8.330;2023-02-28T07:48:50;102569.53;;;-0.01;100.00
30967;BME280;17649;51.836;8.330;2023-02-28T07:51:50;102575.13;;;0.25;100.00
30967;BME280;17649;51.836;8.330;2023-02-28T07:54:51;102565.41;;;0.50;100.00
30967;BME280;17649;51.836;8.330;2023-02-28T07:57:51;102557.13;;;0.62;100.00
30967;BME280;17649;51.836;8.330;2023-02-28T08:00:52;102554.84;;;0.78;100.00
30967;BME280;17649;51.836;8.330;2023-02-28T08:03:52;102557.50;;;0.87;100.00
30967;BME280;17649;51.836;8.330;2023-02-28T08:06:54;102562.75;;;0.97;100.00
30967;BME280;17649;51.836;8.330;2023-02-28T08:09:56;102551.00;;;1.05;100.00
30967;BME280;17649;51.836;8.330;2023-02-28T08:12:56;102555.34;;;1.12;100.00
30967;BME280;17649;51.836;8.330;2023-02-28T08:15:57;102547.03;;;1.25;100.00
30967;BME280;17649;51.836;8.330;2023-02-28T08:18:58;102555.72;;;1.36;100.00
30967;BME280;17649;51.836;8.330;2023-02-28T08:21:58;102546.56;;;1.54;100.00
30967;BME280;17649;51.836;8.330;2023-02-28T08:24:59;102550.91;;;1.62;100.00
30967;BME280;17649;51.836;8.330;2023-02-28T08:27:59;102549.38;;;1.73;100.00
30967;BME280;17649;51.836;8.330;2023-02-28T08:30:59;102544.44;;;1.87;100.00
30967;BME280;17649;51.836;8.330;2023-02-28T08:34:00;102543.72;;;2.00;100.00
30967;BME280;17649;51.836;8.330;2023-02-28T08:37:00;102547.28;;;2.13;100.00
30967;BME280;17649;51.836;8.330;2023-02-28T08:40:01;102549.13;;;2.28;100.00
30967;BME280;17649;51.836;8.330;2023-02-28T08:43:01;102538.19;;;2.41;100.00
30967;BME280;17649;51.836;8.330;2023-02-28T08:46:02;102542.50;;;2.51;100.00
30967;BME280;17649;51.836;8.330;2023-02-28T08:49:03;102543.47;;;2.65;100.00
30967;BME280;17649;51.836;8.330;2023-02-28T08:52:04;102537.63;;;2.77;100.00
30967;BME280;17649;51.836;8.330;2023-02-28T08:55:04;102541.97;;;2.89;100.00
30967;BME280;17649;51.836;8.330;2023-02-28T08:58:05;102544.66;;;3.06;100.00
30967;BME280;17649;51.836;8.330;2023-02-28T09:01:14;102543.78;;;3.02;100.00
30967;BME280;17649;51.836;8.330;2023-02-28T09:04:15;102546.34;;;3.07;100.00
30967;BME280;17649;51.836;8.330;2023-02-28T09:07:15;102548.13;;;3.14;100.00
30967;BME280;17649;51.836;8.330;2023-02-28T09:10:16;102553.28;;;3.21;100.00
30967;BME280;17649;51.836;8.330;2023-02-28T09:13:16;102545.66;;;3.31;100.00
30967;BME280;17649;51.836;8.330;2023-02-28T09:16:18;102544.00;;;3.42;100.00
30967;BME280;17649;51.836;8.330;2023-02-28T09:19:19;102544.09;;;3.63;100.00
30967;BME280;17649;51.836;8.330;2023-02-28T09:22:19;102540.84;;;4.05;100.00
30967;BME280;17649;51.836;8.330;2023-02-28T09:25:20;102539.16;;;4.30;100.00
30967;BME280;17649;51.836;8.330;2023-02-28T09:28:21;102534.91;;;4.44;100.00
30967;BME280;17649;51.836;8.330;2023-02-28T09:31:23;102531.53;;;4.62;100.00
30967;BME280;17649;51.836;8.330;2023-02-28T09:34:26;102543.47;;;4.80;100.00
30967;BME280;17649;51.836;8.330;2023-02-28T09:37:26;102539.19;;;4.94;100.00
30967;BME280;17649;51.836;8.330;2023-02-28T09:40:29;102539.16;;;5.11;100.00
30967;BME280;17649;51.836;8.330;2023-02-28T09:43:36;102533.13;;;5.26;100.00
30967;BME280;17649;51.836;8.330;2023-02-28T09:46:41;102529.75;;;5.12;100.00
30967;BME280;17649;51.836;8.330;2023-02-28T09:49:46;102522.03;;;5.13;100.00
30967;BME280;17649;51.836;8.330;2023-02-28T09:52:48;102522.06;;;5.12;100.00
30967;BME280;17649;51.836;8.330;2023-02-28T09:56:27;102530.53;;;5.35;100.00
30967;BME280;17649;51.836;8.330;2023-02-28T09:59:37;102534.59;;;5.94;100.00
30967;BME280;17649;51.836;8.330;2023-02-28T10:06:17;102537.44;;;6.78;94.13
30967;BME280;17649;51.836;8.330;2023-02-28T10:09:22;102543.47;;;6.74;90.57
30967;BME280;17649;51.836;8.330;2023-02-28T10:12:25;102543.25;;;6.96;89.00
30967;BME280;17649;51.836;8.330;2023-02-28T10:15:29;102540.41;;;7.23;95.89
30967;BME280;17649;51.836;8.330;2023-02-28T10:18:44;102555.94;;;7.18;83.94
30967;BME280;17649;51.836;8.330;2023-02-28T10:22:34;102553.78;;;6.73;87.08
30967;BME280;17649;51.836;8.330;2023-02-28T10:25:19;102550.38;;;6.71;89.45
30967;BME280;17649;51.836;8.330;2023-02-28T10:28:20;102547.78;;;6.72;90.95
30967;BME280;17649;51.836;8.330;2023-02-28T10:31:20;102549.53;;;6.66;90.81
30967;BME280;17649;51.836;8.330;2023-02-28T10:34:21;102546.03;;;6.74;90.65
30967;BME280;17649;51.836;8.330;2023-02-28T10:37:21;102545.16;;;6.78;92.40
30967;BME280;17649;51.836;8.330;2023-02-28T10:43:22;102536.22;;;7.13;92.58
30967;BME280;17649;51.836;8.330;2023-02-28T10:46:23;102534.53;;;7.12;94.05
30967;BME280;17649;51.836;8.330;2023-02-28T10:49:27;102532.53;;;7.37;94.69
30967;BME280;17649;51.836;8.330;2023-02-28T10:52:47;102536.03;;;7.33;94.85
30967;BME280;17649;51.836;8.330;2023-02-28T10:56:05;102529.91;;;7.44;98.62
30967;BME280;17649;51.836;8.330;2023-02-28T10:59:27;102526.34;;;7.52;100.00
30967;BME280;17649;51.836;8.330;2023-02-28T11:02:34;102521.00;;;7.67;100.00
30967;BME280;17649;51.836;8.330;2023-02-28T11:05:36;102520.19;;;7.65;100.00
30967;BME280;17649;51.836;8.330;2023-02-28T11:08:44;102528.66;;;7.73;100.00
30967;BME280;17649;51.836;8.330;2023-02-28T11:11:46;102511.75;;;8.15;100.00
30967;BME280;17649;51.836;8.330;2023-02-28T11:14:50;102522.97;;;8.13;100.00
30967;BME280;17649;51.836;8.330;2023-02-28T11:20:59;102518.78;;;8.05;100.00
30967;BME280;17649;51.836;8.330;2023-02-28T11:24:05;102513.94;;;8.93;100.00
30967;BME280;17649;51.836;8.330;2023-02-28T11:30:34;102508.50;;;11.28;64.47
30967;BME280;17649;51.836;8.330;2023-02-28T11:33:51;102507.16;;;10.13;64.33
30967;BME280;17649;51.836;8.330;2023-02-28T11:36:54;102509.09;;;9.21;70.97
30967;BME280;17649;51.836;8.330;2023-02-28T11:39:55;102500.72;;;9.10;79.92
30967;BME280;17649;51.836;8.330;2023-02-28T11:43:10;102492.69;;;8.78;79.91
30967;BME280;17649;51.836;8.330;2023-02-28T11:49:32;102493.31;;;8.90;91.84
30967;BME280;17649;51.836;8.330;2023-02-28T11:52:44;102490.25;;;8.70;94.19
30967;BME280;17649;51.836;8.330;2023-02-28T11:55:49;102488.09;;;8.44;87.51
30967;BME280;17649;51.836;8.330;2023-02-28T11:59:23;102491.31;;;8.04;92.84
30967;BME280;17649;51.836;8.330;2023-02-28T12:09:20;102467.13;;;8.10;95.49
30967;BME280;17649;51.836;8.330;2023-02-28T12:16:41;102460.75;;;8.83;85.16
30967;BME280;17649;51.836;8.330;2023-02-28T12:19:21;102457.44;;;8.77;79.90
30967;BME280;17649;51.836;8.330;2023-02-28T12:22:32;102454.56;;;10.12;68.54
30967;BME280;17649;51.836;8.330;2023-02-28T12:29:30;102433.84;;;12.50;50.57
30967;BME280;17649;51.836;8.330;2023-02-28T12:32:35;102443.28;;;13.01;49.53
30967;BME280;17649;51.836;8.330;2023-02-28T12:35:51;102444.91;;;13.73;43.46
30967;BME280;17649;51.836;8.330;2023-02-28T12:39:11;102432.00;;;14.75;41.50
30967;BME280;17649;51.836;8.330;2023-02-28T12:42:19;102425.94;;;15.33;42.18
30967;BME280;17649;51.836;8.330;2023-02-28T12:45:41;102436.13;;;15.56;40.47
30967;BME280;17649;51.836;8.330;2023-02-28T12:48:46;102425.25;;;16.71;39.46
30967;BME280;17649;51.836;8.330;2023-02-28T12:51:48;102413.19;;;17.17;38.20
30967;BME280;17649;51.836;8.330;2023-02-28T12:54:54;102418.53;;;16.65;36.11
30967;BME280;17649;51.836;8.330;2023-02-28T13:05:06;102394.38;;;17.26;34.60
30967;BME280;17649;51.836;8.330;2023-02-28T13:11:29;102384.03;;;17.86;34.31
30967;BME280;17649;51.836;8.330;2023-02-28T13:14:37;102393.16;;;18.82;33.99
30967;BME280;17649;51.836;8.330;2023-02-28T13:17:39;102384.63;;;18.64;33.56
30967;BME280;17649;51.836;8.330;2023-02-28T13:20:47;102375.97;;;17.12;33.95
30967;BME280;17649;51.836;8.330;2023-02-28T13:36:49;102360.59;;;20.57;33.55
30967;BME280;17649;51.836;8.330;2023-02-28T13:39:56;102366.53;;;21.21;30.40
30967;BME280;17649;51.836;8.330;2023-02-28T13:42:57;102364.78;;;20.34;29.08
30967;BME280;17649;51.836;8.330;2023-02-28T13:46:08;102360.91;;;18.51;30.28
30967;BME280;17649;51.836;8.330;2023-02-28T13:49:28;102367.56;;;18.85;30.89
30967;BME280;17649;51.836;8.330;2023-02-28T13:52:30;102349.78;;;19.17;32.06
30967;BME280;17649;51.836;8.330;2023-02-28T13:55:44;102359.25;;;18.79;30.71
30967;BME280;17649;51.836;8.330;2023-02-28T14:02:15;102355.88;;;18.76;31.47
30967;BME280;17649;51.836;8.330;2023-02-28T14:05:27;102354.97;;;18.05;33.50
30967;BME280;17649;51.836;8.330;2023-02-28T14:08:31;102346.97;;;19.47;34.21
30967;BME280;17649;51.836;8.330;2023-02-28T14:11:36;102348.28;;;20.07;31.65
30967;BME280;17649;51.836;8.330;2023-02-28T14:17:37;102349.09;;;19.01;31.41
30967;BME280;17649;51.836;8.330;2023-02-28T14:20:40;102350.53;;;19.73;31.27
30967;BME280;17649;51.836;8.330;2023-02-28T14:33:59;102330.53;;;20.48;31.32
30967;BME280;17649;51.836;8.330;2023-02-28T14:37:04;102339.97;;;20.51;30.87
30967;BME280;17649;51.836;8.330;2023-02-28T14:40:14;102335.56;;;19.34;31.19
30967;BME280;17649;51.836;8.330;2023-02-28T14:43:21;102331.16;;;18.52;31.45
30967;BME280;17649;51.836;8.330;2023-02-28T14:46:24;102332.50;;;16.12;32.96
30967;BME280;17649;51.836;8.330;2023-02-28T14:49:32;102334.47;;;13.81;35.57
30967;BME280;17649;51.836;8.330;2023-02-28T14:52:34;102334.75;;;11.87;40.58
30967;BME280;17649;51.836;8.330;2023-02-28T14:55:35;102336.38;;;10.78;44.13
30967;BME280;17649;51.836;8.330;2023-02-28T14:58:35;102333.75;;;10.16;45.56
30967;BME280;17649;51.836;8.330;2023-02-28T15:01:36;102338.03;;;9.47;55.08
30967;BME280;17649;51.836;8.330;2023-02-28T15:04:36;102338.69;;;8.77;55.31
30967;BME280;17649;51.836;8.330;2023-02-28T15:07:41;102347.03;;;8.46;64.52
30967;BME280;17649;51.836;8.330;2023-02-28T15:10:56;102346.38;;;8.36;67.98
30967;BME280;17649;51.836;8.330;2023-02-28T15:13:57;102349.13;;;8.26;76.68
30967;BME280;17649;51.836;8.330;2023-02-28T15:17:02;102347.53;;;8.17;100.00
30967;BME280;17649;51.836;8.330;2023-02-28T15:20:12;102350.47;;;7.97;85.09
30967;BME280;17649;51.836;8.330;2023-02-28T15:23:15;102353.88;;;7.99;87.45
30967;BME280;17649;51.836;8.330;2023-02-28T15:26:17;102349.75;;;7.89;92.90
30967;BME280;17649;51.836;8.330;2023-02-28T15:29:22;102350.00;;;7.74;91.85
30967;BME280;17649;51.836;8.330;2023-02-28T15:32:32;102356.03;;;7.71;95.51
30967;BME280;17649;51.836;8.330;2023-02-28T15:35:34;102349.56;;;7.47;96.28
30967;BME280;17649;51.836;8.330;2023-02-28T15:38:36;102357.41;;;7.38;100.00
30967;BME280;17649;51.836;8.330;2023-02-28T15:41:37;102350.66;;;7.31;100.00
30967;BME280;17649;51.836;8.330;2023-02-28T15:44:38;102346.53;;;7.18;100.00
30967;BME280;17649;51.836;8.330;2023-02-28T15:47:38;102362.03;;;7.12;100.00
30967;BME280;17649;51.836;8.330;2023-02-28T15:50:39;102356.00;;;7.13;100.00
30967;BME280;17649;51.836;8.330;2023-02-28T15:53:51;102361.19;;;7.11;100.00
30967;BME280;17649;51.836;8.330;2023-02-28T15:57:17;102361.31;;;7.02;100.00
30967;BME280;17649;51.836;8.330;2023-02-28T16:00:22;102360.69;;;6.83;100.00
30967;BME280;17649;51.836;8.330;2023-02-28T16:03:27;102364.22;;;6.76;100.00
30967;BME280;17649;51.836;8.330;2023-02-28T16:06:43;102373.81;;;6.61;100.00
30967;BME280;17649;51.836;8.330;2023-02-28T16:09:44;102369.59;;;6.52;100.00
30967;BME280;17649;51.836;8.330;2023-02-28T16:12:47;102375.66;;;6.48;100.00
30967;BME280;17649;51.836;8.330;2023-02-28T16:15:47;102377.47;;;6.37;100.00
30967;BME280;17649;51.836;8.330;2023-02-28T16:18:50;102364.78;;;6.20;100.00
30967;BME280;17649;51.836;8.330;2023-02-28T16:21:55;102364.06;;;6.06;100.00
30967;BME280;17649;51.836;8.330;2023-02-28T16:24:55;102365.84;;;5.97;100.00
30967;BME280;17649;51.836;8.330;2023-02-28T16:27:56;102362.44;;;5.97;100.00
30967;BME280;17649;51.836;8.330;2023-02-28T16:31:01;102365.94;;;5.84;100.00
30967;BME280;17649;51.836;8.330;2023-02-28T16:34:02;102368.50;;;5.82;100.00
30967;BME280;17649;51.836;8.330;2023-02-28T16:37:04;102376.31;;;5.70;100.00
30967;BME280;17649;51.836;8.330;2023-02-28T16:40:05;102373.78;;;5.62;100.00
30967;BME280;17649;51.836;8.330;2023-02-28T16:43:16;102373.78;;;5.59;100.00
30967;BME280;17649;51.836;8.330;2023-02-28T16:46:43;102381.53;;;5.50;100.00
30967;BME280;17649;51.836;8.330;2023-02-28T16:49:44;102379.91;;;5.40;100.00
30967;BME280;17649;51.836;8.330;2023-02-28T16:52:54;102381.66;;;5.30;100.00
30967;BME280;17649;51.836;8.330;2023-02-28T16:56:02;102376.66;;;5.11;100.00
30967;BME280;17649;51.836;8.330;2023-02-28T16:59:05;102384.41;;;4.97;100.00
30967;BME280;17649;51.836;8.330;2023-02-28T17:02:12;102383.56;;;4.87;100.00
30967;BME280;17649;51.836;8.330;2023-02-28T17:05:13;102382.75;;;4.74;100.00
30967;BME280;17649;51.836;8.330;2023-02-28T17:08:15;102387.06;;;4.65;100.00
30967;BME280;17649;51.836;8.330;2023-02-28T17:11:17;102389.66;;;4.53;100.00
30967;BME280;17649;51.836;8.330;2023-02-28T17:14:17;102388.81;;;4.41;100.00
30967;BME280;17649;51.836;8.330;2023-02-28T17:17:21;102381.13;;;4.26;100.00
30967;BME280;17649;51.836;8.330;2023-02-28T17:20:22;102370.06;;;4.07;100.00
30967;BME280;17649;51.836;8.330;2023-02-28T17:23:23;102388.00;;;4.04;100.00
30967;BME280;17649;51.836;8.330;2023-02-28T17:26:24;102381.13;;;3.86;100.00
30967;BME280;17649;51.836;8.330;2023-02-28T17:29:25;102381.16;;;3.76;100.00
30967;BME280;17649;51.836;8.330;2023-02-28T17:32:26;102385.38;;;3.63;100.00
30967;BME280;17649;51.836;8.330;2023-02-28T17:35:27;102394.75;;;3.55;100.00
30967;BME280;17649;51.836;8.330;2023-02-28T17:38:28;102387.06;;;3.49;100.00
30967;BME280;17649;51.836;8.330;2023-02-28T17:41:29;102395.59;;;3.57;100.00
30967;BME280;17649;51.836;8.330;2023-02-28T17:44:30;102396.44;;;3.54;100.00